createdAt,value
2019-04-27T00:04:34.577Z,0
2019-04-27T00:09:34.625Z,0
2019-04-27T00:14:34.655Z,0
2019-04-27T00:19:35.353Z,0
2019-04-27T00:24:35.804Z,0
2019-04-27T00:29:34.300Z,0
2019-04-27T00:34:34.483Z,0
2019-04-27T00:39:34.932Z,0
2019-04-27T00:44:34.365Z,0
2019-04-27T00:49:34.312Z,0
2019-04-27T00:54:34.440Z,0
2019-04-27T00:59:34.415Z,0
2019-04-27T01:04:34.323Z,0
2019-04-27T01:09:34.499Z,0
2019-04-27T01:14:34.398Z,0
2019-04-27T01:19:34.324Z,0
2019-04-27T01:24:34.241Z,0
2019-04-27T01:29:34.356Z,0
2019-04-27T01:34:34.387Z,0
2019-04-27T01:39:34.637Z,0
2019-04-27T01:44:34.618Z,0
2019-04-27T01:49:34.363Z,0
2019-04-27T01:54:34.294Z,0
2019-04-27T01:59:34.130Z,0
2019-04-27T02:04:34.403Z,0
2019-04-27T02:09:34.127Z,0
2019-04-27T02:14:34.347Z,0
2019-04-27T02:19:34.021Z,0
2019-04-27T02:24:34.214Z,0
2019-04-27T02:29:34.452Z,0
2019-04-27T02:34:34.075Z,0
2019-04-27T02:39:34.506Z,0
2019-04-27T02:44:34.173Z,0
2019-04-27T02:49:34.310Z,0
2019-04-27T02:54:34.055Z,0
2019-04-27T02:59:34.058Z,0
2019-04-27T03:04:34.054Z,0
2019-04-27T03:09:34.481Z,0
2019-04-27T03:14:36.468Z,0
2019-04-27T03:19:34.068Z,0
2019-04-27T03:24:34.122Z,0
2019-04-27T03:29:34.150Z,0
2019-04-27T03:34:33.951Z,0
2019-04-27T03:39:33.897Z,0
2019-04-27T03:44:34.190Z,0
2019-04-27T03:49:37.687Z,0
2019-04-27T03:54:34.253Z,0
2019-04-27T03:59:34.316Z,0
2019-04-27T04:04:34.211Z,0
2019-04-27T04:09:33.991Z,0
2019-04-27T04:14:36.798Z,0
2019-04-27T04:19:47.675Z,0
2019-04-27T04:24:34.011Z,0
2019-04-27T04:29:34.370Z,0
2019-04-27T04:34:33.991Z,0
2019-04-27T04:39:33.944Z,0
2019-04-27T04:44:34.189Z,0
2019-04-27T04:49:34.235Z,0
2019-04-27T04:54:33.984Z,0
2019-04-27T04:59:34.227Z,0.8
2019-04-27T05:04:34.205Z,0
2019-04-27T05:09:34.028Z,0.8
2019-04-27T05:14:33.834Z,0.8
2019-04-27T05:19:33.920Z,1.7
2019-04-27T05:24:34.120Z,1.7
2019-04-27T05:29:33.979Z,1.7
2019-04-27T05:34:34.160Z,1.7
2019-04-27T05:39:34.017Z,3.3
2019-04-27T05:44:33.894Z,1.7
2019-04-27T05:49:36.288Z,2.5
2019-04-27T05:54:34.069Z,3.3
2019-04-27T05:59:34.024Z,2.5
2019-04-27T06:04:33.844Z,2.5
2019-04-27T06:09:33.794Z,3.3
2019-04-27T06:14:33.798Z,0.8
2019-04-27T06:19:33.787Z,2.5
2019-04-27T06:24:33.946Z,3.3
2019-04-27T06:29:34.094Z,3.3
2019-04-27T06:34:34.000Z,2.5
2019-04-27T06:39:33.892Z,4.2
2019-04-27T06:44:34.098Z,5
2019-04-27T06:49:33.935Z,6.7
2019-04-27T06:54:34.031Z,11.7
2019-04-27T06:59:33.934Z,9.2
2019-04-27T07:04:33.896Z,5.8
2019-04-27T07:09:33.865Z,5
2019-04-27T07:14:33.800Z,5
2019-04-27T07:19:33.749Z,6.7
2019-04-27T07:24:33.746Z,11.7
2019-04-27T07:29:33.896Z,11.7
2019-04-27T07:34:33.597Z,11.7
2019-04-27T07:39:33.664Z,12.5
2019-04-27T07:44:33.804Z,13.3
2019-04-27T07:49:33.776Z,17.5
2019-04-27T07:54:33.899Z,20.8
2019-04-27T07:59:33.881Z,20.8
2019-04-27T08:04:33.744Z,25
2019-04-27T08:09:33.678Z,26.7
2019-04-27T08:14:33.558Z,21.7
2019-04-27T08:19:33.668Z,33.3
2019-04-27T08:24:33.644Z,20
2019-04-27T08:29:33.812Z,21.7
2019-04-27T08:34:33.453Z,29.2
2019-04-27T08:39:33.968Z,28.3
2019-04-27T08:44:33.603Z,41.7
2019-04-27T08:49:33.801Z,30
2019-04-27T08:54:33.381Z,24.2
2019-04-27T08:59:33.423Z,39.2
2019-04-27T09:04:33.483Z,37.5
2019-04-27T09:09:33.887Z,35
2019-04-27T09:14:33.804Z,26.7
2019-04-27T09:19:33.765Z,31.7
2019-04-27T09:24:33.548Z,35.8
2019-04-27T09:29:33.669Z,32.5
2019-04-27T09:34:33.636Z,30.8
2019-04-27T09:39:33.519Z,32.5
2019-04-27T09:44:33.456Z,32.5
2019-04-27T09:49:33.634Z,37.5
2019-04-27T09:54:33.448Z,55.8
2019-04-27T09:59:33.597Z,44.2
2019-04-27T10:04:33.636Z,40.8
2019-04-27T10:09:33.782Z,40.8
2019-04-27T10:14:33.521Z,59.2
2019-04-27T10:19:33.794Z,53.3
2019-04-27T10:24:33.486Z,35.8
2019-04-27T10:29:33.534Z,27.5
2019-04-27T10:34:33.657Z,45.8
2019-04-27T10:39:33.512Z,30
2019-04-27T10:44:33.570Z,18.3
2019-04-27T10:49:33.237Z,19.2
2019-04-27T10:54:33.358Z,25.8
2019-04-27T10:59:33.353Z,34.2
2019-04-27T11:04:33.332Z,37.5
2019-04-27T11:09:33.534Z,32.5
2019-04-27T11:14:33.500Z,36.7
2019-04-27T11:19:33.549Z,24.2
2019-04-27T11:24:33.773Z,8.3
2019-04-27T11:29:33.649Z,8.3
2019-04-27T11:34:33.233Z,23.3
2019-04-27T11:39:33.279Z,53.3
2019-04-27T11:44:33.351Z,22.5
2019-04-27T11:49:33.605Z,15
2019-04-27T11:54:33.296Z,18.3
2019-04-27T11:59:33.365Z,30
2019-04-27T12:04:33.464Z,29.2
2019-04-27T12:09:33.451Z,34.2
2019-04-27T12:14:33.426Z,32.5
2019-04-27T12:19:33.356Z,43.3
2019-04-27T12:24:33.623Z,33.3
2019-04-27T12:29:33.294Z,16.7
2019-04-27T12:34:33.342Z,49.2
2019-04-27T12:39:33.627Z,33.3
2019-04-27T12:44:40.469Z,8.3
2019-04-27T12:49:33.348Z,20
2019-04-27T12:54:33.525Z,34.2
2019-04-27T12:59:33.412Z,58.3
2019-04-27T13:04:33.291Z,65
2019-04-27T13:09:33.480Z,28.3
2019-04-27T13:14:33.518Z,14.2
2019-04-27T13:19:33.442Z,6.7
2019-04-27T13:24:33.310Z,3.3
2019-04-27T13:29:33.339Z,7.5
2019-04-27T13:34:33.418Z,26.7
2019-04-27T13:39:33.445Z,13.3
2019-04-27T13:44:33.221Z,12.5
2019-04-27T13:49:33.142Z,10.8
2019-04-27T13:54:32.995Z,11.7
2019-04-27T13:59:33.328Z,8.3
2019-04-27T14:04:33.096Z,14.2
2019-04-27T14:09:33.296Z,15
2019-04-27T14:14:33.133Z,24.2
2019-04-27T14:19:33.211Z,9.2
2019-04-27T14:24:33.228Z,5
2019-04-27T14:29:33.625Z,8.3
2019-04-27T14:34:33.207Z,9.2
2019-04-27T14:39:33.496Z,4.2
2019-04-27T14:44:33.092Z,11.7
2019-04-27T14:49:33.277Z,9.2
2019-04-27T14:54:45.182Z,6.7
2019-04-27T14:59:33.132Z,5
2019-04-27T15:04:33.675Z,3.3
2019-04-27T15:09:33.355Z,7.5
2019-04-27T15:14:33.215Z,8.3
2019-04-27T15:19:33.089Z,6.7
2019-04-27T15:24:33.266Z,4.2
2019-04-27T15:29:33.019Z,5
2019-04-27T15:34:35.393Z,9.2
2019-04-27T15:39:32.981Z,58.3
2019-04-27T15:44:36.575Z,11.7
2019-04-27T15:49:33.152Z,14.2
2019-04-27T15:54:33.033Z,6.7
2019-04-27T15:59:37.840Z,4.2
2019-04-27T16:04:34.497Z,3.3
2019-04-27T16:09:32.939Z,1.7
2019-04-27T16:14:36.391Z,5
2019-04-27T16:19:33.239Z,13.3
2019-04-27T16:24:32.788Z,3.3
2019-04-27T16:29:33.016Z,2.5
2019-04-27T16:34:37.008Z,5.8
2019-04-27T16:39:33.255Z,1.7
2019-04-27T16:44:32.762Z,2.5
2019-04-27T16:49:33.087Z,8.3
2019-04-27T16:54:33.039Z,11.7
2019-04-27T17:04:33.065Z,10
2019-04-27T17:09:36.226Z,6.7
2019-04-27T17:12:41.154Z,13.3
2019-04-27T17:14:36.479Z,0.8
2019-04-27T17:19:35.914Z,0.8
2019-04-27T17:24:37.489Z,0.8
2019-04-27T17:29:32.984Z,3.3
2019-04-27T17:34:32.950Z,3.3
2019-04-27T17:39:32.826Z,5.8
2019-04-27T17:44:32.936Z,5
2019-04-27T17:49:32.909Z,3.3
2019-04-27T17:54:33.051Z,5.8
2019-04-27T17:59:32.899Z,6.7
2019-04-27T18:04:36.865Z,5.8
2019-04-27T18:09:33.420Z,5
2019-04-27T18:14:39.368Z,3.3
2019-04-27T18:19:32.641Z,2.5
2019-04-27T18:24:32.674Z,1.7
2019-04-27T18:29:32.822Z,0.8
2019-04-27T18:34:32.718Z,0.8
2019-04-27T18:39:32.931Z,0.8
2019-04-27T18:44:32.800Z,0
2019-04-27T18:49:32.861Z,0
2019-04-27T18:54:37.565Z,0
2019-04-27T18:59:32.750Z,0
2019-04-27T19:04:32.902Z,0
2019-04-27T19:09:32.964Z,0
2019-04-27T19:14:32.873Z,0
2019-04-27T19:19:32.911Z,0
2019-04-27T19:24:32.965Z,0
2019-04-27T19:29:32.630Z,0
2019-04-27T19:34:32.981Z,0
2019-04-27T19:39:32.714Z,0
2019-04-27T19:44:33.073Z,0
2019-04-27T19:49:32.875Z,0
2019-04-27T19:54:33.007Z,0
2019-04-27T19:59:33.232Z,0
2019-04-27T20:04:32.764Z,0
2019-04-27T20:09:32.725Z,0
2019-04-27T20:14:32.779Z,0
2019-04-27T20:19:32.507Z,0
2019-04-27T20:24:33.544Z,0
2019-04-27T20:29:32.631Z,0
2019-04-27T20:34:32.850Z,0
2019-04-27T20:39:32.697Z,0
2019-04-27T20:44:32.643Z,0
2019-04-27T20:49:32.506Z,0
2019-04-27T20:54:32.733Z,0
2019-04-27T20:59:32.640Z,0
2019-04-27T21:04:32.889Z,0
2019-04-27T21:09:32.717Z,0
2019-04-27T21:14:32.430Z,0
2019-04-27T21:19:32.490Z,0
2019-04-27T21:24:32.659Z,0
2019-04-27T21:29:32.530Z,0
2019-04-27T21:34:32.458Z,0
2019-04-27T21:39:32.553Z,0
2019-04-27T21:44:32.638Z,0
2019-04-27T21:49:32.535Z,0
2019-04-27T21:54:32.995Z,0
2019-04-27T21:59:32.649Z,0
2019-04-27T22:04:32.515Z,0
2019-04-27T22:09:32.553Z,0
2019-04-27T22:14:32.513Z,0
2019-04-27T22:19:32.597Z,0
2019-04-27T22:24:32.662Z,0
2019-04-27T22:29:32.619Z,0
2019-04-27T22:34:32.638Z,0
2019-04-27T22:39:32.408Z,0
2019-04-27T22:44:32.370Z,0
2019-04-27T22:49:32.644Z,0
2019-04-27T22:54:32.532Z,0
2019-04-27T22:59:32.548Z,0
2019-04-27T23:04:32.606Z,0
2019-04-27T23:09:32.299Z,0
2019-04-27T23:14:32.397Z,0
2019-04-27T23:19:32.521Z,0
2019-04-27T23:24:32.581Z,0
2019-04-27T23:29:33.211Z,0
2019-04-27T23:34:32.280Z,0
2019-04-27T23:39:32.364Z,0
2019-04-27T23:44:32.228Z,0
2019-04-27T23:49:32.503Z,0
2019-04-27T23:54:32.323Z,0
2019-04-27T23:59:33.337Z,0
